createdAt,value
2023-01-05T00:01:46.917Z,96907.75
2023-01-05T00:04:14.275Z,96917.28
2023-01-05T00:06:42.139Z,96914.53
2023-01-05T00:09:14.321Z,96922.19
2023-01-05T00:11:59.552Z,96922.41
2023-01-05T00:14:49.227Z,96913.59
2023-01-05T00:17:41.878Z,96900.34
2023-01-05T00:20:36.240Z,96902.00
2023-01-05T00:23:03.596Z,96895.19
2023-01-05T00:25:34.357Z,96897.03
2023-01-05T00:28:01.198Z,96885.69
2023-01-05T00:30:33.239Z,96888.94
2023-01-05T00:33:00.231Z,96895.16
2023-01-05T00:35:27.213Z,96888.44
2023-01-05T00:37:54.782Z,96880.31
2023-01-05T00:40:22.607Z,96878.66
2023-01-05T00:42:49.636Z,96881.75
2023-01-05T00:45:18.898Z,96879.28
2023-01-05T00:47:45.968Z,96881.28
2023-01-05T00:50:17.103Z,96882.06
2023-01-05T00:52:45.115Z,96876.63
2023-01-05T00:55:12.268Z,96874.41
2023-01-05T00:57:39.538Z,96871.84
2023-01-05T01:00:11.441Z,96864.72
2023-01-05T01:02:38.243Z,96868.38
2023-01-05T01:05:06.137Z,96877.19
2023-01-05T01:07:32.973Z,96863.59
2023-01-05T01:09:59.772Z,96862.72
2023-01-05T01:12:26.629Z,96850.88
2023-01-05T01:14:53.538Z,96859.06
2023-01-05T01:17:20.478Z,96857.06
2023-01-05T01:19:47.334Z,96848.94
2023-01-05T01:22:14.642Z,96861.38
2023-01-05T01:24:41.695Z,96853.22
2023-01-05T01:27:08.633Z,96845.16
2023-01-05T01:29:35.522Z,96844.59
2023-01-05T01:32:02.359Z,96843.97
2023-01-05T01:34:29.339Z,96861.81
2023-01-05T01:36:56.728Z,96859.38
2023-01-05T01:39:23.751Z,96855.59
2023-01-05T01:41:50.655Z,96852.19
2023-01-05T01:44:48.371Z,96853.22
2023-01-05T01:47:32.128Z,96841.81
2023-01-05T01:50:04.169Z,96843.66
2023-01-05T01:52:32.909Z,96824.53
2023-01-05T01:55:02.238Z,96830.25
2023-01-05T01:57:29.451Z,96826.28
2023-01-05T01:59:59.551Z,96831.44
2023-01-05T02:02:28.669Z,96830.63
2023-01-05T02:05:03.636Z,96815.13
2023-01-05T02:07:34.858Z,96814.66
2023-01-05T02:10:04.660Z,96802.84
2023-01-05T02:13:05.001Z,96800.44
2023-01-05T02:16:06.058Z,96780.38
2023-01-05T02:18:40.340Z,96789.19
2023-01-05T02:21:30.893Z,96784.00
2023-01-05T02:25:02.159Z,96779.16
2023-01-05T02:27:44.007Z,96790.47
2023-01-05T02:30:43.081Z,96779.59
2023-01-05T02:33:24.155Z,96765.97
2023-01-05T02:36:36.526Z,96770.75
2023-01-05T02:39:31.370Z,96752.34
2023-01-05T02:42:14.432Z,96767.94
2023-01-05T02:44:41.365Z,96744.16
2023-01-05T02:47:28.270Z,96763.94
2023-01-05T02:50:04.514Z,96747.47
2023-01-05T02:53:14.626Z,96754.09
2023-01-05T02:56:04.403Z,96748.97
2023-01-05T02:58:49.435Z,96737.31
2023-01-05T03:01:30.520Z,96736.81
2023-01-05T03:04:07.560Z,96741.38
2023-01-05T03:06:48.744Z,96739.69
2023-01-05T03:09:19.981Z,96747.16
2023-01-05T03:12:16.815Z,96755.94
2023-01-05T03:14:50.485Z,96746.84
2023-01-05T03:17:26.916Z,96760.16
2023-01-05T03:19:55.518Z,96737.66
2023-01-05T03:22:46.907Z,96744.91
2023-01-05T03:25:36.765Z,96737.53
2023-01-05T03:28:25.553Z,96740.28
2023-01-05T03:31:23.017Z,96741.50
2023-01-05T03:34:35.062Z,96742.88
2023-01-05T03:37:08.774Z,96745.25
2023-01-05T03:39:40.655Z,96738.88
2023-01-05T03:42:09.359Z,96747.34
2023-01-05T03:44:41.482Z,96733.59
2023-01-05T03:47:08.297Z,96738.03
2023-01-05T03:49:35.798Z,96726.97
2023-01-05T03:52:02.684Z,96726.47
2023-01-05T03:54:29.556Z,96725.09
2023-01-05T03:56:56.414Z,96722.69
2023-01-05T03:59:23.227Z,96722.69
2023-01-05T04:01:50.167Z,96730.00
2023-01-05T04:04:17.086Z,96723.84
2023-01-05T04:06:43.891Z,96724.53
2023-01-05T04:09:10.769Z,96720.22
2023-01-05T04:11:37.559Z,96728.75
2023-01-05T04:14:04.404Z,96732.22
2023-01-05T04:16:31.328Z,96733.38
2023-01-05T04:18:58.224Z,96726.78
2023-01-05T04:21:25.106Z,96713.19
2023-01-05T04:23:51.930Z,96713.78
2023-01-05T04:26:18.769Z,96701.94
2023-01-05T04:28:45.603Z,96697.41
2023-01-05T04:31:12.578Z,96704.72
2023-01-05T04:33:40.086Z,96686.44
2023-01-05T04:36:08.275Z,96687.16
2023-01-05T04:38:35.141Z,96683.56
2023-01-05T04:41:01.979Z,96688.31
2023-01-05T04:43:28.816Z,96676.09
2023-01-05T04:45:55.781Z,96685.25
2023-01-05T04:48:22.772Z,96684.00
2023-01-05T04:50:55.443Z,96694.19
2023-01-05T04:53:23.296Z,96693.50
2023-01-05T04:55:51.428Z,96684.88
2023-01-05T04:58:19.076Z,96684.44
2023-01-05T05:00:46.027Z,96689.63
2023-01-05T05:03:12.972Z,96698.19
2023-01-05T05:05:39.896Z,96691.47
2023-01-05T05:08:06.739Z,96688.91
2023-01-05T05:10:33.510Z,96685.75
2023-01-05T05:13:00.358Z,96699.41
2023-01-05T05:15:27.418Z,96699.34
2023-01-05T05:17:54.261Z,96699.59
2023-01-05T05:20:21.067Z,96707.16
2023-01-05T05:22:47.910Z,96704.88
2023-01-05T05:25:14.769Z,96706.72
2023-01-05T05:27:41.663Z,96701.56
2023-01-05T05:30:09.234Z,96727.13
2023-01-05T05:32:40.888Z,96720.63
2023-01-05T05:35:10.813Z,96727.44
2023-01-05T05:37:37.677Z,96729.31
2023-01-05T05:40:05.400Z,96721.38
2023-01-05T05:42:32.335Z,96721.47
2023-01-05T05:44:59.146Z,96733.06
2023-01-05T05:47:25.997Z,96728.75
2023-01-05T05:49:52.812Z,96742.44
2023-01-05T05:52:19.694Z,96740.81
2023-01-05T05:54:46.515Z,96736.50
2023-01-05T05:57:13.340Z,96739.09
2023-01-05T05:59:40.185Z,96756.78
2023-01-05T06:02:07.139Z,96751.84
2023-01-05T06:04:34.027Z,96744.03
2023-01-05T06:07:00.986Z,96750.56
2023-01-05T06:09:27.822Z,96762.00
2023-01-05T06:11:54.919Z,96742.28
2023-01-05T06:14:21.855Z,96751.56
2023-01-05T06:16:49.756Z,96758.81
2023-01-05T06:19:16.673Z,96759.03
2023-01-05T06:21:43.519Z,96758.88
2023-01-05T06:24:10.376Z,96760.25
2023-01-05T06:26:37.253Z,96764.63
2023-01-05T06:29:04.138Z,96748.97
2023-01-05T06:31:31.044Z,96761.66
2023-01-05T06:33:57.847Z,96769.25
2023-01-05T06:36:24.719Z,96767.16
2023-01-05T06:38:51.563Z,96775.38
2023-01-05T06:41:18.410Z,96766.91
2023-01-05T06:43:45.456Z,96772.91
2023-01-05T06:46:13.251Z,96773.13
2023-01-05T06:48:40.199Z,96771.53
2023-01-05T06:51:07.095Z,96776.06
2023-01-05T06:53:33.980Z,96771.47
2023-01-05T06:56:00.838Z,96777.31
2023-01-05T06:58:27.660Z,96770.84
2023-01-05T07:00:55.062Z,96752.59
2023-01-05T07:03:23.715Z,96761.81
2023-01-05T07:05:51.566Z,96764.06
2023-01-05T07:08:18.450Z,96763.94
2023-01-05T07:10:45.309Z,96771.09
2023-01-05T07:13:12.217Z,96783.31
2023-01-05T07:15:39.214Z,96777.59
2023-01-05T07:18:06.079Z,96782.22
2023-01-05T07:20:32.939Z,96781.50
2023-01-05T07:22:59.817Z,96783.69
2023-01-05T07:25:31.316Z,96790.34
2023-01-05T07:27:58.671Z,96785.91
2023-01-05T07:30:25.583Z,96802.88
2023-01-05T07:32:52.408Z,96799.47
2023-01-05T07:35:19.208Z,96800.50
2023-01-05T07:37:46.104Z,96798.38
2023-01-05T07:40:13.053Z,96806.91
2023-01-05T07:42:39.873Z,96806.69
2023-01-05T07:45:07.476Z,96811.69
2023-01-05T07:47:34.427Z,96816.56
2023-01-05T07:50:01.936Z,96820.16
2023-01-05T07:52:30.633Z,96818.44
2023-01-05T07:54:58.312Z,96821.19
2023-01-05T07:57:25.160Z,96839.63
2023-01-05T07:59:51.992Z,96833.25
2023-01-05T08:02:18.943Z,96841.38
2023-01-05T08:04:46.842Z,96846.28
2023-01-05T08:07:15.687Z,96849.09
2023-01-05T08:10:01.445Z,96863.53
2023-01-05T08:12:30.329Z,96853.44
2023-01-05T08:14:57.354Z,96868.00
2023-01-05T08:17:24.182Z,96878.44
2023-01-05T08:19:51.005Z,96882.09
2023-01-05T08:22:17.932Z,96879.03
2023-01-05T08:24:44.741Z,96881.38
2023-01-05T08:27:11.620Z,96886.44
2023-01-05T08:29:38.445Z,96900.03
2023-01-05T08:32:05.681Z,96882.56
2023-01-05T08:34:34.914Z,96897.84
2023-01-05T08:37:02.122Z,96893.97
2023-01-05T08:39:28.972Z,96905.56
2023-01-05T08:42:02.121Z,96913.53
2023-01-05T08:44:29.523Z,96906.38
2023-01-05T08:46:56.356Z,96922.78
2023-01-05T08:49:24.134Z,96929.31
2023-01-05T08:51:50.992Z,96928.06
2023-01-05T08:54:17.832Z,96936.22
2023-01-05T08:56:44.754Z,96939.97
2023-01-05T08:59:14.986Z,96937.22
2023-01-05T09:01:42.365Z,96934.44
2023-01-05T09:04:09.285Z,96937.75
2023-01-05T09:06:36.113Z,96935.81
2023-01-05T09:09:03.417Z,96930.44
2023-01-05T09:11:30.362Z,96933.72
2023-01-05T09:13:59.495Z,96935.72
2023-01-05T09:19:17.601Z,96950.16
2023-01-05T09:21:44.833Z,96949.00
2023-01-05T09:24:12.977Z,96958.16
2023-01-05T09:26:41.242Z,96962.03
2023-01-05T09:29:09.147Z,96974.84
2023-01-05T09:31:36.042Z,96962.56
2023-01-05T09:34:03.007Z,96969.66
2023-01-05T09:36:29.934Z,96972.84
2023-01-05T09:38:57.080Z,96984.75
2023-01-05T09:41:47.763Z,96986.22
2023-01-05T09:44:37.240Z,96983.50
2023-01-05T09:47:27.329Z,96996.50
2023-01-05T09:49:55.875Z,96996.44
2023-01-05T09:52:23.052Z,97001.84
2023-01-05T09:54:50.032Z,96999.09
2023-01-05T09:57:25.420Z,96998.78
2023-01-05T09:59:58.747Z,96994.00
2023-01-05T10:02:59.156Z,96996.56
2023-01-05T10:05:27.969Z,96995.66
2023-01-05T10:08:03.552Z,96990.81
2023-01-05T10:11:20.819Z,96992.41
2023-01-05T10:14:15.777Z,97002.19
2023-01-05T10:16:45.545Z,97011.78
2023-01-05T10:19:18.987Z,97010.97
2023-01-05T10:22:06.421Z,97021.16
2023-01-05T10:25:20.263Z,97025.78
2023-01-05T10:28:20.520Z,97016.38
2023-01-05T10:30:59.239Z,97020.34
2023-01-05T10:33:56.689Z,97025.69
2023-01-05T10:39:32.717Z,97020.34
2023-01-05T10:42:18.311Z,97030.00
2023-01-05T10:45:12.093Z,97025.03
2023-01-05T10:47:40.928Z,97026.03
2023-01-05T10:50:38.015Z,97012.38
2023-01-05T10:53:09.169Z,97026.78
2023-01-05T10:55:55.272Z,97015.63
2023-01-05T10:58:23.187Z,97019.34
2023-01-05T11:00:50.886Z,97028.31
2023-01-05T11:03:19.425Z,97017.13
2023-01-05T11:05:48.310Z,97013.31
2023-01-05T11:08:19.208Z,97013.63
2023-01-05T11:11:00.377Z,97018.13
2023-01-05T11:13:43.076Z,97017.69
2023-01-05T11:16:26.673Z,97010.50
2023-01-05T11:19:14.686Z,97017.41
2023-01-05T11:21:47.859Z,97012.38
2023-01-05T11:24:23.975Z,97014.47
2023-01-05T11:27:00.043Z,97009.78
2023-01-05T11:29:27.740Z,97013.31
2023-01-05T11:32:00.460Z,97001.16
2023-01-05T11:34:49.581Z,96997.28
2023-01-05T11:37:28.524Z,97003.69
2023-01-05T11:40:04.691Z,96991.56
2023-01-05T11:42:34.796Z,96994.25
2023-01-05T11:45:08.036Z,96998.69
2023-01-05T11:47:44.716Z,97006.72
2023-01-05T11:50:18.525Z,96994.09
2023-01-05T11:52:52.181Z,96996.88
2023-01-05T11:55:30.422Z,96996.94
2023-01-05T11:58:25.538Z,96987.25
2023-01-05T12:01:25.380Z,97000.59
2023-01-05T12:04:23.327Z,96991.22
2023-01-05T12:07:20.524Z,96996.47
2023-01-05T12:10:18.764Z,97000.06
2023-01-05T12:13:08.809Z,96996.63
2023-01-05T12:16:07.410Z,96995.38
2023-01-05T12:19:06.302Z,96991.91
2023-01-05T12:21:39.911Z,96990.63
2023-01-05T12:24:39.013Z,96996.97
2023-01-05T12:27:47.297Z,96998.59
2023-01-05T12:36:23.651Z,96987.22
2023-01-05T12:39:20.115Z,96989.78
2023-01-05T12:42:48.631Z,96995.22
2023-01-05T12:45:32.149Z,97007.34
2023-01-05T12:48:33.832Z,97005.44
2023-01-05T12:51:34.995Z,97007.22
2023-01-05T12:54:07.282Z,97010.44
2023-01-05T12:56:51.487Z,97007.97
2023-01-05T12:59:32.539Z,97007.81
2023-01-05T13:02:20.649Z,97002.94
2023-01-05T13:05:19.768Z,97005.09
2023-01-05T13:08:02.194Z,96998.69
2023-01-05T13:10:57.624Z,96994.28
2023-01-05T13:13:35.079Z,97000.91
2023-01-05T13:16:20.204Z,97003.19
2023-01-05T13:19:02.462Z,97006.81
2023-01-05T13:21:30.842Z,97004.31
2023-01-05T13:24:09.089Z,97015.50
2023-01-05T13:26:38.453Z,97017.41
2023-01-05T13:29:05.589Z,97015.88
2023-01-05T13:31:44.281Z,97025.91
2023-01-05T13:34:17.572Z,97014.34
2023-01-05T13:37:26.655Z,97018.25
2023-01-05T13:40:28.797Z,97025.44
2023-01-05T13:43:19.864Z,97021.78
2023-01-05T13:46:26.635Z,97023.22
2023-01-05T13:52:55.481Z,97037.44
2023-01-05T13:55:26.078Z,97031.31
2023-01-05T13:57:55.684Z,97040.19
2023-01-05T14:00:41.705Z,97041.34
2023-01-05T14:03:29.101Z,97029.81
2023-01-05T14:06:03.163Z,97038.94
2023-01-05T14:08:38.363Z,97042.13
2023-01-05T14:11:19.286Z,97040.97
2023-01-05T14:14:00.102Z,97045.22
2023-01-05T14:16:37.443Z,97049.47
2023-01-05T14:19:28.231Z,97043.97
2023-01-05T14:21:59.612Z,97047.38
2023-01-05T14:24:47.459Z,97045.97
2023-01-05T14:27:22.745Z,97046.44
2023-01-05T14:29:52.760Z,97049.16
2023-01-05T14:32:37.013Z,97051.25
2023-01-05T14:35:30.687Z,97044.88
2023-01-05T14:38:07.258Z,97047.25
2023-01-05T14:40:55.464Z,97051.31
2023-01-05T14:43:33.986Z,97050.72
2023-01-05T14:46:11.738Z,97058.34
2023-01-05T14:49:05.325Z,97066.13
2023-01-05T14:51:34.612Z,97065.06
2023-01-05T14:54:04.861Z,97071.31
2023-01-05T14:56:35.120Z,97076.66
2023-01-05T14:59:26.055Z,97069.03
2023-01-05T15:02:03.440Z,97069.25
2023-01-05T15:04:35.727Z,97067.41
2023-01-05T15:07:42.051Z,97071.38
2023-01-05T15:10:55.598Z,97074.16
2023-01-05T15:13:37.390Z,97074.59
2023-01-05T15:16:22.709Z,97092.09
2023-01-05T15:18:59.265Z,97080.41
2023-01-05T15:21:41.079Z,97093.94
2023-01-05T15:24:49.594Z,97087.94
2023-01-05T15:28:04.935Z,97104.09
2023-01-05T15:34:14.484Z,97098.19
2023-01-05T15:36:56.238Z,97111.03
2023-01-05T15:39:29.944Z,97111.38
2023-01-05T15:42:01.555Z,97107.69
2023-01-05T15:44:37.328Z,97116.00
2023-01-05T15:47:05.284Z,97111.03
2023-01-05T15:49:34.067Z,97117.94
2023-01-05T15:52:01.276Z,97113.25
2023-01-05T15:54:31.820Z,97123.03
2023-01-05T15:57:00.959Z,97135.56
2023-01-05T15:59:40.751Z,97136.56
2023-01-05T16:02:29.964Z,97136.91
2023-01-05T16:05:14.131Z,97128.56
2023-01-05T16:07:51.345Z,97127.50
2023-01-05T16:10:22.985Z,97123.31
2023-01-05T16:12:55.479Z,97135.19
2023-01-05T16:15:24.104Z,97139.22
2023-01-05T16:17:55.238Z,97131.94
2023-01-05T16:20:24.978Z,97136.75
2023-01-05T16:23:08.770Z,97133.38
2023-01-05T16:25:47.828Z,97134.47
2023-01-05T16:28:20.528Z,97135.81
2023-01-05T16:30:49.697Z,97145.72
2023-01-05T16:33:36.268Z,97148.16
2023-01-05T16:36:22.743Z,97152.09
2023-01-05T16:38:49.887Z,97143.59
2023-01-05T16:41:26.400Z,97147.28
2023-01-05T16:44:00.279Z,97150.56
2023-01-05T16:46:37.265Z,97152.19
2023-01-05T16:49:32.014Z,97149.03
2023-01-05T16:51:59.656Z,97148.00
2023-01-05T16:54:44.152Z,97150.56
2023-01-05T16:57:41.014Z,97166.66
2023-01-05T17:00:26.166Z,97161.66
2023-01-05T17:02:58.220Z,97159.03
2023-01-05T17:05:29.976Z,97167.44
2023-01-05T17:08:21.288Z,97165.50
2023-01-05T17:10:49.140Z,97174.75
2023-01-05T17:13:23.363Z,97182.63
2023-01-05T17:15:52.862Z,97175.56
2023-01-05T17:18:28.599Z,97184.13
2023-01-05T17:20:57.653Z,97181.28
2023-01-05T17:23:27.007Z,97173.72
2023-01-05T17:25:56.839Z,97166.44
2023-01-05T17:28:24.714Z,97168.09
2023-01-05T17:30:52.705Z,97164.13
2023-01-05T17:33:19.920Z,97174.44
2023-01-05T17:38:20.113Z,97176.47
2023-01-05T17:40:46.964Z,97181.75
2023-01-05T17:43:14.958Z,97176.84
2023-01-05T17:45:43.998Z,97192.25
2023-01-05T17:50:44.340Z,97178.84
2023-01-05T17:53:11.515Z,97184.91
2023-01-05T17:55:38.702Z,97183.09
2023-01-05T17:58:05.708Z,97183.75
2023-01-05T18:00:34.995Z,97179.75
2023-01-05T18:03:01.856Z,97174.84
2023-01-05T18:05:28.997Z,97179.66
2023-01-05T18:07:55.999Z,97179.09
2023-01-05T18:10:26.824Z,97182.94
2023-01-05T18:12:55.793Z,97178.50
2023-01-05T18:15:22.685Z,97172.88
2023-01-05T18:17:49.536Z,97176.13
2023-01-05T18:20:21.537Z,97177.13
2023-01-05T18:22:49.461Z,97179.06
2023-01-05T18:25:17.328Z,97177.88
2023-01-05T18:27:44.439Z,97176.41
2023-01-05T18:30:12.939Z,97177.41
2023-01-05T18:32:40.474Z,97168.53
2023-01-05T18:35:10.177Z,97172.22
2023-01-05T18:37:39.132Z,97179.75
2023-01-05T18:40:07.787Z,97174.84
2023-01-05T18:42:36.277Z,97180.47
2023-01-05T18:45:13.967Z,97177.66
2023-01-05T18:47:46.877Z,97176.47
2023-01-05T18:50:13.871Z,97185.03
2023-01-05T18:52:40.811Z,97171.88
2023-01-05T18:55:07.988Z,97182.22
2023-01-05T18:57:35.965Z,97179.44
2023-01-05T19:00:04.679Z,97172.53
2023-01-05T19:02:31.833Z,97175.97
2023-01-05T19:04:58.799Z,97173.78
2023-01-05T19:07:25.673Z,97165.25
2023-01-05T19:09:53.317Z,97170.72
2023-01-05T19:12:20.249Z,97169.53
2023-01-05T19:14:47.090Z,97166.63
2023-01-05T19:17:13.977Z,97177.13
2023-01-05T19:19:41.111Z,97178.13
2023-01-05T19:22:07.971Z,97176.25
2023-01-05T19:24:35.500Z,97180.69
2023-01-05T19:27:02.366Z,97173.44
2023-01-05T19:29:29.326Z,97171.59
2023-01-05T19:31:56.204Z,97186.78
2023-01-05T19:34:23.057Z,97179.09
2023-01-05T19:36:49.947Z,97181.28
2023-01-05T19:39:20.817Z,97183.91
2023-01-05T19:41:51.256Z,97178.25
2023-01-05T19:44:21.039Z,97191.09
2023-01-05T19:46:51.868Z,97189.81
2023-01-05T19:49:22.797Z,97192.47
2023-01-05T19:51:50.282Z,97196.31
2023-01-05T19:54:18.200Z,97182.03
2023-01-05T19:56:45.689Z,97187.13
2023-01-05T19:59:32.833Z,97187.84
2023-01-05T20:02:04.937Z,97187.06
2023-01-05T20:04:32.925Z,97191.84
2023-01-05T20:07:04.001Z,97184.00
2023-01-05T20:09:31.283Z,97180.25
2023-01-05T20:12:09.109Z,97184.09
2023-01-05T20:14:39.972Z,97186.84
2023-01-05T20:17:10.266Z,97186.38
2023-01-05T20:19:38.726Z,97182.41
2023-01-05T20:22:07.791Z,97183.69
2023-01-05T20:24:37.219Z,97187.47
2023-01-05T20:27:08.953Z,97193.19
2023-01-05T20:29:37.119Z,97190.16
2023-01-05T20:32:09.347Z,97191.13
2023-01-05T20:34:39.199Z,97182.78
2023-01-05T20:37:09.322Z,97192.91
2023-01-05T20:39:39.135Z,97197.00
2023-01-05T20:42:06.536Z,97189.75
2023-01-05T20:44:37.679Z,97189.06
2023-01-05T20:47:06.788Z,97198.88
2023-01-05T20:49:36.199Z,97196.91
2023-01-05T20:52:04.505Z,97203.78
2023-01-05T20:54:31.560Z,97200.19
2023-01-05T20:56:58.845Z,97205.34
2023-01-05T20:59:32.717Z,97205.56
2023-01-05T21:02:00.666Z,97214.19
2023-01-05T21:04:30.325Z,97201.38
2023-01-05T21:07:01.083Z,97206.97
2023-01-05T21:09:31.488Z,97205.31
2023-01-05T21:12:00.072Z,97199.38
2023-01-05T21:14:26.911Z,97198.47
2023-01-05T21:16:55.149Z,97204.19
2023-01-05T21:19:24.169Z,97203.84
2023-01-05T21:21:55.531Z,97199.88
2023-01-05T21:24:24.093Z,97190.53
2023-01-05T21:26:51.264Z,97195.31
2023-01-05T21:29:22.135Z,97187.03
2023-01-05T21:31:50.465Z,97196.06
2023-01-05T21:34:17.613Z,97192.84
2023-01-05T21:36:45.814Z,97196.78
2023-01-05T21:39:24.704Z,97199.94
2023-01-05T21:42:11.619Z,97194.66
2023-01-05T21:44:39.763Z,97191.88
2023-01-05T21:47:13.936Z,97199.66
2023-01-05T21:49:40.824Z,97195.63
2023-01-05T21:52:25.990Z,97199.06
2023-01-05T21:55:11.205Z,97191.19
2023-01-05T21:57:38.095Z,97194.53
2023-01-05T22:00:06.741Z,97199.81
2023-01-05T22:02:33.587Z,97198.28
2023-01-05T22:05:00.394Z,97204.97
2023-01-05T22:07:27.388Z,97206.63
2023-01-05T22:09:54.322Z,97209.88
2023-01-05T22:12:21.146Z,97209.25
2023-01-05T22:14:47.942Z,97214.31
2023-01-05T22:17:14.900Z,97208.63
2023-01-05T22:19:41.716Z,97211.63
2023-01-05T22:22:08.496Z,97214.34
2023-01-05T22:24:35.400Z,97204.59
2023-01-05T22:27:02.257Z,97207.66
2023-01-05T22:29:29.185Z,97206.31
2023-01-05T22:31:56.114Z,97204.03
2023-01-05T22:34:23.011Z,97197.16
2023-01-05T22:36:50.195Z,97197.84
2023-01-05T22:39:17.287Z,97199.81
2023-01-05T22:41:45.497Z,97211.63
2023-01-05T22:44:12.651Z,97204.03
2023-01-05T22:46:39.505Z,97209.28
2023-01-05T22:49:06.485Z,97207.28
2023-01-05T22:51:37.082Z,97208.81
2023-01-05T22:54:05.294Z,97209.28
2023-01-05T22:56:33.513Z,97204.97
2023-01-05T22:59:01.588Z,97214.69
2023-01-05T23:01:43.443Z,97208.59
2023-01-05T23:04:11.360Z,97207.41
2023-01-05T23:06:38.434Z,97198.41
2023-01-05T23:09:08.104Z,97204.97
2023-01-05T23:11:38.740Z,97199.38
2023-01-05T23:14:09.408Z,97199.69
2023-01-05T23:16:36.799Z,97191.09
2023-01-05T23:19:05.993Z,97192.13
2023-01-05T23:21:33.055Z,97186.53
2023-01-05T23:24:00.230Z,97190.47
2023-01-05T23:26:28.439Z,97186.03
2023-01-05T23:28:55.757Z,97177.34
2023-01-05T23:31:23.294Z,97174.06
2023-01-05T23:33:50.197Z,97169.63
2023-01-05T23:36:18.892Z,97168.78
2023-01-05T23:38:46.898Z,97174.06
2023-01-05T23:41:16.055Z,97170.56
2023-01-05T23:43:49.263Z,97165.19
2023-01-05T23:46:20.284Z,97168.78
2023-01-05T23:48:49.094Z,97166.44
2023-01-05T23:51:17.076Z,97155.81
2023-01-05T23:53:47.428Z,97164.03
2023-01-05T23:56:26.854Z,97157.94
2023-01-05T23:59:05.464Z,97159.56
